Forside
METAR-TAF:

METAR-TAF

Lufthavne :

Kokomo Municipal Airport

Kokomo, Indiana, USA

Breddekreds: 40-32N, længdekreds: 086-04W, højde: 253 m

Aktuelle vejr

Denne rapport blev lavet for 33 minutter siden, kl. 17:56 UTC
Vind 12 kt fra sydsydvest
Temperatur 9°C
Fugtighed 53%
Tryk 1017 hPa
Sigt: 16.1 km
skyfri

METAR: KOKK 231756Z AUTO 21012KT 10SM CLR 09/00 A3003 RMK AO2 SLP174 T00940000 10094 21006 58018

Tid: 13:29 (18:29 UTC)


TAF: fraværende

Vejrobservationer og prognoser fra mere end 4000 lufthavne (METAR og TAF).

De gule og røde prikker repræsenterer de meteorologiske stationer.

Flyt musen over at se navnet på stationen.

Så klik over at se vejr observationer og prognoser.

At skifte det kort: Klik på de grønne knapper med et sort kors for at zoome ind; på den grønne knap med en bindestreg for at zoome ud; eller på de grønne pile for tilstødende kort.


METAR-TAF: